createdAt,value
2022-10-18T00:00:46.241Z,18.30
2022-10-18T00:03:12.713Z,18.28
2022-10-18T00:05:39.304Z,18.25
2022-10-18T00:08:05.854Z,18.28
2022-10-18T00:10:32.365Z,18.27
2022-10-18T00:12:58.844Z,18.24
2022-10-18T00:15:25.491Z,18.15
2022-10-18T00:17:52.034Z,18.24
2022-10-18T00:20:18.530Z,18.19
2022-10-18T00:22:45.044Z,18.11
2022-10-18T00:25:11.798Z,18.19
2022-10-18T00:27:38.317Z,18.12
2022-10-18T00:30:05.515Z,18.14
2022-10-18T00:32:37.060Z,18.13
2022-10-18T00:35:04.314Z,18.15
2022-10-18T00:37:30.861Z,18.12
2022-10-18T00:39:57.348Z,18.11
2022-10-18T00:42:28.087Z,18.12
2022-10-18T00:45:17.953Z,18.12
2022-10-18T00:47:47.449Z,18.12
2022-10-18T00:50:14.130Z,18.10
2022-10-18T00:52:45.179Z,18.11
2022-10-18T00:55:11.878Z,18.11
2022-10-18T00:57:40.072Z,18.09
2022-10-18T01:00:09.766Z,18.11
2022-10-18T01:02:37.786Z,18.06
2022-10-18T01:05:05.033Z,18.07
2022-10-18T01:07:59.479Z,18.08
2022-10-18T01:10:32.916Z,18.07
2022-10-18T01:13:11.561Z,18.06
2022-10-18T01:15:50.029Z,18.06
2022-10-18T01:18:25.148Z,18.02
2022-10-18T01:21:16.582Z,18.03
2022-10-18T01:24:13.970Z,18.01
2022-10-18T01:27:29.084Z,18.01
2022-10-18T01:30:07.493Z,18.01
2022-10-18T01:32:44.360Z,18.01
2022-10-18T01:35:18.297Z,18.00
2022-10-18T01:37:46.569Z,17.95
2022-10-18T01:40:14.731Z,17.97
2022-10-18T01:42:42.162Z,17.97
2022-10-18T01:45:09.358Z,17.99
2022-10-18T01:47:36.219Z,17.98
2022-10-18T01:50:05.858Z,17.97
2022-10-18T01:52:32.754Z,17.98
2022-10-18T01:54:59.698Z,17.98
2022-10-18T01:57:37.660Z,17.90
2022-10-18T02:00:08.408Z,17.97
2022-10-18T02:02:46.461Z,17.95
2022-10-18T02:05:19.094Z,17.95
2022-10-18T02:08:22.901Z,17.94
2022-10-18T02:10:54.654Z,17.94
2022-10-18T02:13:22.653Z,17.89
2022-10-18T02:15:59.887Z,17.91
2022-10-18T02:18:35.368Z,17.87
2022-10-18T02:21:03.693Z,17.85
2022-10-18T02:23:30.998Z,17.87
2022-10-18T02:25:57.665Z,17.88
2022-10-18T02:31:19.550Z,17.80
2022-10-18T02:34:22.714Z,17.80
2022-10-18T02:36:57.746Z,17.77
2022-10-18T02:39:30.348Z,17.76
2022-10-18T02:41:58.204Z,17.75
2022-10-18T02:44:24.771Z,17.75
2022-10-18T02:46:51.287Z,17.70
2022-10-18T02:49:17.889Z,17.71
2022-10-18T02:51:44.381Z,17.68
2022-10-18T02:54:10.917Z,17.66
2022-10-18T02:56:37.391Z,17.63
2022-10-18T02:59:05.563Z,17.61
2022-10-18T03:01:32.998Z,17.60
2022-10-18T03:03:59.566Z,17.58
2022-10-18T03:06:26.069Z,17.55
2022-10-18T03:08:52.542Z,17.55
2022-10-18T03:11:19.056Z,17.54
2022-10-18T03:13:45.579Z,17.49
2022-10-18T03:16:12.570Z,17.51
2022-10-18T03:18:39.062Z,17.55
2022-10-18T03:21:06.823Z,17.51
2022-10-18T03:23:33.692Z,17.40
2022-10-18T03:26:00.460Z,17.48
2022-10-18T03:28:27.181Z,17.50
2022-10-18T03:30:53.713Z,17.50
2022-10-18T03:33:20.185Z,17.49
2022-10-18T03:35:46.662Z,17.47
2022-10-18T03:38:13.205Z,17.46
2022-10-18T03:40:39.673Z,17.45
2022-10-18T03:43:06.227Z,17.48
2022-10-18T03:45:32.672Z,17.46
2022-10-18T03:47:59.302Z,17.43
2022-10-18T03:50:25.774Z,17.43
2022-10-18T03:52:54.061Z,17.41
2022-10-18T03:55:20.577Z,17.39
2022-10-18T03:57:47.090Z,17.39
2022-10-18T04:00:14.373Z,17.37
2022-10-18T04:02:40.867Z,17.37
2022-10-18T04:05:07.687Z,17.34
2022-10-18T04:10:06.842Z,17.32
2022-10-18T04:12:33.817Z,17.32
2022-10-18T04:15:00.427Z,17.33
2022-10-18T04:17:26.973Z,17.33
2022-10-18T04:19:53.509Z,17.31
2022-10-18T04:22:20.153Z,17.32
2022-10-18T04:24:46.608Z,17.30
2022-10-18T04:27:13.089Z,17.30
2022-10-18T04:29:39.685Z,17.27
2022-10-18T04:32:06.296Z,17.29
2022-10-18T04:34:32.849Z,17.27
2022-10-18T04:36:59.421Z,17.29
2022-10-18T04:39:25.986Z,17.21
2022-10-18T04:41:52.493Z,17.24
2022-10-18T04:44:18.965Z,17.23
2022-10-18T04:46:45.423Z,17.21
2022-10-18T04:49:11.955Z,17.17
2022-10-18T04:51:38.478Z,17.18
2022-10-18T04:54:04.970Z,17.17
2022-10-18T04:56:31.819Z,17.18
2022-10-18T04:58:59.413Z,17.20
2022-10-18T05:01:25.981Z,17.20
2022-10-18T05:03:56.906Z,17.20
2022-10-18T05:06:23.454Z,17.16
2022-10-18T05:08:49.925Z,17.14
2022-10-18T05:11:16.481Z,17.12
2022-10-18T05:13:44.999Z,17.12
2022-10-18T05:16:13.793Z,17.09
2022-10-18T05:18:40.284Z,17.07
2022-10-18T05:21:06.743Z,17.05
2022-10-18T05:23:33.252Z,17.00
2022-10-18T05:26:04.426Z,17.04
2022-10-18T05:28:39.292Z,17.02
2022-10-18T05:31:08.254Z,17.01
2022-10-18T05:33:34.801Z,17.01
2022-10-18T05:36:01.411Z,16.99
2022-10-18T05:38:30.834Z,16.98
2022-10-18T05:40:58.480Z,16.96
2022-10-18T05:43:28.502Z,16.93
2022-10-18T05:45:55.022Z,16.99
2022-10-18T05:48:21.620Z,16.99
2022-10-18T05:50:48.080Z,16.96
2022-10-18T05:53:35.345Z,16.93
2022-10-18T05:56:01.614Z,16.93
2022-10-18T05:58:28.218Z,16.91
2022-10-18T06:00:54.736Z,16.82
2022-10-18T06:03:21.236Z,16.94
2022-10-18T06:05:47.755Z,16.98
2022-10-18T06:08:14.327Z,17.02
2022-10-18T06:10:40.869Z,17.02
2022-10-18T06:13:07.418Z,16.99
2022-10-18T06:15:33.946Z,16.99
2022-10-18T06:18:00.434Z,17.02
2022-10-18T06:20:26.929Z,17.04
2022-10-18T06:22:53.679Z,17.10
2022-10-18T06:25:20.202Z,17.12
2022-10-18T06:27:46.705Z,17.09
2022-10-18T06:30:13.261Z,17.11
2022-10-18T06:32:39.749Z,17.15
2022-10-18T06:35:06.752Z,17.21
2022-10-18T06:37:35.503Z,17.19
2022-10-18T06:40:02.397Z,17.21
2022-10-18T06:42:28.884Z,17.23
2022-10-18T06:44:55.345Z,17.25
2022-10-18T06:47:21.856Z,17.26
2022-10-18T06:49:48.391Z,17.26
2022-10-18T06:52:17.650Z,17.33
2022-10-18T06:54:45.439Z,17.35
2022-10-18T06:57:12.075Z,17.37
2022-10-18T06:59:38.552Z,17.42
2022-10-18T07:02:05.147Z,17.44
2022-10-18T07:04:31.657Z,17.46
2022-10-18T07:06:58.225Z,17.48
2022-10-18T07:09:24.696Z,17.52
2022-10-18T07:11:52.792Z,17.50
2022-10-18T07:14:19.274Z,17.56
2022-10-18T07:16:45.848Z,17.64
2022-10-18T07:19:12.460Z,17.64
2022-10-18T07:21:38.951Z,17.66
2022-10-18T07:24:05.701Z,17.73
2022-10-18T07:26:34.627Z,17.75
2022-10-18T07:29:09.843Z,17.76
2022-10-18T07:31:38.444Z,17.81
2022-10-18T07:34:05.319Z,17.83
2022-10-18T07:36:31.955Z,17.87
2022-10-18T07:38:59.585Z,17.92
2022-10-18T07:41:26.200Z,17.97
2022-10-18T07:43:53.301Z,18.02
2022-10-18T07:46:21.350Z,18.01
2022-10-18T07:48:48.033Z,18.04
2022-10-18T07:51:14.926Z,18.07
2022-10-18T07:53:41.398Z,18.02
2022-10-18T07:56:15.637Z,18.11
2022-10-18T07:58:43.364Z,18.16
2022-10-18T08:01:10.258Z,18.21
2022-10-18T08:03:37.454Z,18.23
2022-10-18T08:06:05.066Z,18.24
2022-10-18T08:08:31.703Z,18.30
2022-10-18T08:11:14.718Z,18.38
2022-10-18T08:13:41.389Z,18.40
2022-10-18T08:16:11.265Z,18.46
2022-10-18T08:18:38.214Z,18.49
2022-10-18T08:21:06.840Z,18.52
2022-10-18T08:23:34.134Z,18.47
2022-10-18T08:26:02.346Z,18.41
2022-10-18T08:28:29.130Z,18.57
2022-10-18T08:30:55.668Z,18.63
2022-10-18T08:33:22.702Z,18.61
2022-10-18T08:36:00.609Z,18.69
2022-10-18T08:38:30.104Z,18.72
2022-10-18T08:40:58.329Z,18.77
2022-10-18T08:43:38.854Z,18.86
2022-10-18T08:46:05.369Z,18.87
2022-10-18T08:48:44.219Z,18.88
2022-10-18T08:51:28.298Z,18.96
2022-10-18T08:54:03.060Z,18.94
2022-10-18T08:56:29.497Z,19.03
2022-10-18T08:58:56.000Z,19.07
2022-10-18T09:02:03.078Z,19.10
2022-10-18T09:05:08.459Z,19.16
2022-10-18T09:07:43.851Z,19.22
2022-10-18T09:10:33.374Z,19.25
2022-10-18T09:13:24.526Z,19.28
2022-10-18T09:15:58.946Z,19.32
2022-10-18T09:18:44.155Z,19.38
2022-10-18T09:21:45.883Z,19.43
2022-10-18T09:24:31.949Z,19.44
2022-10-18T09:27:04.997Z,19.50
2022-10-18T09:29:45.003Z,19.54
2022-10-18T09:32:26.541Z,19.63
2022-10-18T09:34:56.014Z,19.68
2022-10-18T09:37:24.254Z,19.73
2022-10-18T09:39:52.083Z,19.79
2022-10-18T09:42:28.693Z,19.90
2022-10-18T09:45:03.228Z,20.06
2022-10-18T09:47:36.265Z,20.03
2022-10-18T09:50:14.924Z,20.07
2022-10-18T09:52:46.127Z,20.08
2022-10-18T09:55:19.722Z,20.06
2022-10-18T09:57:50.655Z,20.04
2022-10-18T10:00:23.029Z,20.07
2022-10-18T10:02:49.577Z,20.11
2022-10-18T10:05:16.191Z,20.16
2022-10-18T10:07:44.871Z,20.19
2022-10-18T10:10:20.667Z,20.24
2022-10-18T10:12:47.954Z,20.25
2022-10-18T10:15:29.559Z,20.28
2022-10-18T10:18:05.600Z,20.36
2022-10-18T10:20:52.789Z,20.40
2022-10-18T10:23:22.387Z,20.47
2022-10-18T10:25:57.186Z,20.52
2022-10-18T10:28:24.246Z,20.55
2022-10-18T10:30:50.820Z,20.58
2022-10-18T10:33:38.996Z,20.60
2022-10-18T10:36:16.657Z,20.63
2022-10-18T10:38:43.397Z,20.65
2022-10-18T10:41:21.179Z,20.71
2022-10-18T10:43:48.231Z,20.78
2022-10-18T10:46:19.394Z,20.87
2022-10-18T10:48:47.865Z,20.86
2022-10-18T10:51:17.385Z,20.98
2022-10-18T10:53:51.305Z,20.98
2022-10-18T10:56:32.457Z,20.96
2022-10-18T10:59:15.393Z,21.04
2022-10-18T11:01:41.987Z,21.10
2022-10-18T11:04:26.528Z,21.14
2022-10-18T11:07:20.954Z,21.21
2022-10-18T11:09:58.293Z,21.23
2022-10-18T11:12:29.651Z,21.29
2022-10-18T11:15:03.011Z,21.27
2022-10-18T11:20:50.586Z,21.48
2022-10-18T11:23:18.350Z,21.54
2022-10-18T11:26:21.030Z,21.63
2022-10-18T11:29:19.238Z,21.67
2022-10-18T11:32:01.197Z,21.81
2022-10-18T11:35:08.138Z,21.91
2022-10-18T11:37:38.695Z,21.97
2022-10-18T11:40:40.612Z,22.01
2022-10-18T11:43:07.078Z,22.11
2022-10-18T11:45:57.778Z,22.31
2022-10-18T11:48:56.861Z,22.40
2022-10-18T11:51:38.752Z,22.52
2022-10-18T11:54:35.055Z,22.63
2022-10-18T11:57:19.889Z,22.72
2022-10-18T12:00:07.221Z,22.86
2022-10-18T12:02:49.008Z,22.95
2022-10-18T12:05:23.738Z,23.05
2022-10-18T12:08:09.149Z,23.19
2022-10-18T12:10:59.958Z,23.28
2022-10-18T12:13:53.067Z,23.45
2022-10-18T12:16:38.879Z,23.52
2022-10-18T12:19:22.004Z,23.63
2022-10-18T12:21:52.276Z,23.88
2022-10-18T12:24:22.080Z,23.95
2022-10-18T12:26:51.392Z,24.03
2022-10-18T12:29:30.466Z,24.12
2022-10-18T12:32:08.587Z,24.32
2022-10-18T12:34:51.573Z,24.45
2022-10-18T12:37:31.716Z,24.54
2022-10-18T12:40:13.486Z,24.72
2022-10-18T12:42:47.087Z,24.92
2022-10-18T12:45:13.500Z,25.06
2022-10-18T12:47:40.365Z,25.11
2022-10-18T12:50:23.185Z,25.21
2022-10-18T12:53:03.609Z,25.40
2022-10-18T12:55:32.721Z,25.59
2022-10-18T12:57:59.276Z,25.77
2022-10-18T13:00:31.779Z,25.85
2022-10-18T13:03:11.445Z,26.04
2022-10-18T13:05:55.607Z,26.21
2022-10-18T13:08:33.895Z,26.35
2022-10-18T13:11:12.486Z,26.53
2022-10-18T13:13:46.493Z,26.66
2022-10-18T13:16:27.035Z,26.80
2022-10-18T13:18:57.112Z,27.04
2022-10-18T13:21:32.296Z,27.36
2022-10-18T13:24:01.657Z,27.73
2022-10-18T13:26:44.696Z,28.07
2022-10-18T15:56:44.949Z,29.71
2022-10-18T15:59:21.758Z,29.28
2022-10-18T16:01:48.394Z,29.41
2022-10-18T16:04:25.518Z,29.47
2022-10-18T16:06:52.790Z,29.25
2022-10-18T16:09:20.706Z,28.82
2022-10-18T16:11:47.330Z,27.93
2022-10-18T16:14:13.894Z,27.25
2022-10-18T16:16:40.413Z,26.87
2022-10-18T16:19:07.959Z,26.64
2022-10-18T16:21:37.514Z,26.49
2022-10-18T16:24:04.777Z,26.40
2022-10-18T16:26:31.787Z,26.27
2022-10-18T16:28:58.920Z,26.09
2022-10-18T16:31:27.668Z,26.07
2022-10-18T16:33:55.239Z,25.71
2022-10-18T16:36:27.331Z,25.51
2022-10-18T16:38:55.017Z,25.56
2022-10-18T16:41:21.653Z,25.42
2022-10-18T16:43:49.650Z,25.47
2022-10-18T16:46:21.274Z,25.30
2022-10-18T16:48:49.091Z,25.38
2022-10-18T16:51:16.094Z,25.27
2022-10-18T16:53:43.082Z,25.10
2022-10-18T16:56:21.399Z,25.13
2022-10-18T16:58:48.598Z,24.78
2022-10-18T17:01:17.216Z,24.84
2022-10-18T17:03:44.387Z,24.70
2022-10-18T17:06:31.033Z,24.54
2022-10-18T17:08:58.014Z,24.55
2022-10-18T17:11:26.566Z,24.44
2022-10-18T17:13:53.490Z,24.35
2022-10-18T17:19:01.414Z,24.31
2022-10-18T17:21:28.968Z,24.33
2022-10-18T17:23:55.545Z,24.17
2022-10-18T17:26:28.773Z,23.98
2022-10-18T17:28:58.465Z,24.07
2022-10-18T17:31:25.089Z,24.02
2022-10-18T17:33:54.397Z,24.08
2022-10-18T17:36:21.814Z,23.97
2022-10-18T17:38:54.925Z,23.82
2022-10-18T17:41:21.527Z,23.67
2022-10-18T17:43:48.549Z,23.61
2022-10-18T17:46:16.279Z,23.64
2022-10-18T17:48:42.830Z,23.61
2022-10-18T17:51:10.998Z,23.60
2022-10-18T17:53:37.533Z,23.61
2022-10-18T17:56:04.813Z,23.51
2022-10-18T17:58:31.840Z,23.47
2022-10-18T18:01:07.609Z,23.55
2022-10-18T18:03:34.180Z,23.40
2022-10-18T18:06:00.742Z,23.32
2022-10-18T18:08:27.308Z,23.24
2022-10-18T18:10:55.307Z,23.17
2022-10-18T18:13:21.825Z,23.09
2022-10-18T18:15:48.365Z,23.00
2022-10-18T18:18:14.842Z,23.10
2022-10-18T18:20:41.385Z,22.91
2022-10-18T18:23:07.866Z,22.90
2022-10-18T18:25:34.441Z,22.94
2022-10-18T18:28:05.259Z,22.69
2022-10-18T18:30:34.018Z,22.91
2022-10-18T18:33:00.518Z,22.77
2022-10-18T18:35:27.018Z,22.78
2022-10-18T18:37:53.545Z,22.79
2022-10-18T18:40:20.595Z,22.72
2022-10-18T18:43:01.624Z,22.69
2022-10-18T18:45:33.562Z,22.73
2022-10-18T18:48:00.049Z,22.64
2022-10-18T18:50:26.575Z,22.54
2022-10-18T18:52:53.097Z,22.63
2022-10-18T18:55:19.614Z,22.53
2022-10-18T18:57:46.092Z,22.43
2022-10-18T19:00:13.450Z,22.38
2022-10-18T19:02:39.937Z,22.34
2022-10-18T19:05:06.706Z,22.33
2022-10-18T19:07:35.325Z,22.34
2022-10-18T19:10:02.134Z,22.10
2022-10-18T19:12:28.613Z,22.26
2022-10-18T19:14:55.145Z,22.28
2022-10-18T19:17:22.465Z,22.22
2022-10-18T19:19:48.998Z,22.12
2022-10-18T19:22:15.498Z,22.02
2022-10-18T19:24:42.015Z,21.98
2022-10-18T19:27:12.231Z,21.98
2022-10-18T19:29:40.422Z,21.85
2022-10-18T19:32:11.848Z,21.75
2022-10-18T19:34:39.107Z,21.83
2022-10-18T19:37:05.594Z,21.85
2022-10-18T19:39:34.410Z,21.91
2022-10-18T19:42:04.320Z,21.89
2022-10-18T19:44:32.518Z,21.80
2022-10-18T19:46:59.190Z,21.82
2022-10-18T19:49:26.170Z,21.79
2022-10-18T19:51:52.777Z,21.77
2022-10-18T19:54:19.385Z,21.71
2022-10-18T19:56:45.945Z,21.60
2022-10-18T19:59:13.642Z,21.53
2022-10-18T20:01:40.282Z,21.60
2022-10-18T20:04:08.308Z,21.58
2022-10-18T20:06:35.573Z,21.46
2022-10-18T20:09:02.349Z,21.50
2022-10-18T20:11:29.930Z,21.56
2022-10-18T20:13:56.922Z,21.50
2022-10-18T20:16:28.354Z,21.43
2022-10-18T20:18:59.712Z,21.41
2022-10-18T20:21:26.985Z,21.34
2022-10-18T20:23:53.754Z,21.32
2022-10-18T20:26:20.972Z,21.33
2022-10-18T20:28:49.040Z,21.28
2022-10-18T20:31:19.234Z,21.13
2022-10-18T20:33:47.074Z,21.10
2022-10-18T20:36:17.976Z,21.12
2022-10-18T20:38:46.594Z,21.06
2022-10-18T20:41:18.674Z,21.09
2022-10-18T20:43:49.851Z,21.03
2022-10-18T20:46:16.333Z,21.04
2022-10-18T20:48:42.834Z,21.04
2022-10-18T20:51:12.599Z,21.00
2022-10-18T20:53:39.732Z,20.96
2022-10-18T20:56:08.651Z,20.98
2022-10-18T20:58:35.774Z,20.77
2022-10-18T21:01:09.836Z,20.75
2022-10-18T21:03:38.161Z,20.68
2022-10-18T21:06:11.996Z,20.59
2022-10-18T21:08:38.871Z,20.53
2022-10-18T21:11:05.786Z,20.59
2022-10-18T21:13:32.837Z,20.65
2022-10-18T21:16:00.094Z,20.70
2022-10-18T21:18:28.650Z,20.66
2022-10-18T21:20:55.216Z,20.58
2022-10-18T21:23:22.335Z,20.60
2022-10-18T21:25:49.515Z,20.61
2022-10-18T21:28:16.845Z,20.64
2022-10-18T21:30:43.451Z,20.54
2022-10-18T21:33:10.970Z,20.45
2022-10-18T21:35:38.053Z,20.36
2022-10-18T21:38:05.172Z,20.33
2022-10-18T21:40:32.376Z,20.31
2022-10-18T21:42:58.894Z,20.31
2022-10-18T21:45:25.376Z,20.25
2022-10-18T21:47:51.852Z,20.29
2022-10-18T21:50:18.349Z,20.17
2022-10-18T21:52:44.869Z,20.11
2022-10-18T21:55:11.965Z,20.04
2022-10-18T21:57:38.467Z,20.14
2022-10-18T22:00:06.040Z,20.16
2022-10-18T22:02:33.597Z,20.13
2022-10-18T22:05:00.363Z,20.05
2022-10-18T22:07:26.907Z,20.00
2022-10-18T22:09:53.403Z,19.98
2022-10-18T22:12:19.910Z,19.96
2022-10-18T22:14:46.499Z,19.91
2022-10-18T22:17:12.985Z,19.97
2022-10-18T22:19:39.652Z,19.96
2022-10-18T22:22:06.130Z,19.91
2022-10-18T22:24:32.662Z,19.92
2022-10-18T22:26:59.214Z,19.79
2022-10-18T22:29:25.684Z,19.82
2022-10-18T22:31:53.773Z,19.67
2022-10-18T22:34:23.039Z,19.68
2022-10-18T22:36:49.563Z,19.65
2022-10-18T22:39:16.803Z,19.63
2022-10-18T22:41:43.521Z,19.58
2022-10-18T22:44:14.566Z,19.69
2022-10-18T22:46:41.845Z,19.66
2022-10-18T22:49:08.626Z,19.49
2022-10-18T22:54:06.570Z,19.52
2022-10-18T22:56:33.077Z,19.49
2022-10-18T22:58:59.702Z,19.44
2022-10-18T23:01:26.253Z,19.44
2022-10-18T23:03:57.578Z,19.41
2022-10-18T23:06:27.808Z,19.45
2022-10-18T23:08:56.633Z,19.37
2022-10-18T23:11:24.892Z,19.35
2022-10-18T23:13:51.584Z,19.42
2022-10-18T23:16:18.765Z,19.32
2022-10-18T23:18:52.243Z,19.29
2022-10-18T23:21:19.773Z,19.26
2022-10-18T23:23:46.705Z,19.24
2022-10-18T23:26:15.222Z,19.23
2022-10-18T23:28:44.102Z,19.22
2022-10-18T23:31:12.061Z,19.20
2022-10-18T23:33:39.290Z,19.14
2022-10-18T23:36:07.000Z,19.12
2022-10-18T23:38:34.452Z,19.14
2022-10-18T23:41:00.929Z,19.13
2022-10-18T23:43:27.555Z,19.16
2022-10-18T23:45:54.063Z,19.11
2022-10-18T23:48:20.558Z,19.10
2022-10-18T23:50:47.079Z,19.12
2022-10-18T23:53:13.611Z,19.09
2022-10-18T23:55:40.232Z,19.12
2022-10-18T23:58:06.706Z,19.07
